KAWM/AWM METAR and TAF weather

Enter ICAO airport designator
Station Type Date Time Source
KAWM METAR 2019/10/18 05:53 UTC NOAA

KAWM 180553Z AUTO 00000KT 10SM CLR 10/08 A3000 RMK AO2 SLP157 T01000078 10128 20083 401890056 58002


Station Type Date Time Source
KAWM Decoded METAR 2019/10/18 05:53 UTC NOAA

WEST MEMPHIS MUNICIPAL AIRPORT, AR, United States (KAWM) 35-08N 090-14W
Oct 18, 2019 - 01:53 AM EDT / 2019.10.18 0553 UTC
Wind: Calm:0
Visibility: 10 mile(s):0
Sky conditions: clear
Temperature: 50.0 F (10.0 C)
Dew Point: 46.0 F (7.8 C)
Relative Humidity: 86%
Pressure (altimeter): 30 in. Hg (1015 hPa)
Pressure tendency: 0.01 inches (0.2 hPa) lower than three hours ago
ob: KAWM 180553Z AUTO 00000KT 10SM CLR 10/08 A3000 RMK AO2 SLP157 T01000078 10128 20083 401890056 58002
cycle: 6

Station Type Date Time Source
KAWM TAF UTC NOAA

Error!

Example: see airport list